sensor_id;sensor_type;location;lat;lon;timestamp;pressure;altitude;pressure_sealevel;temperature;humidity
41596;BME280;27283;52.504;13.358;2023-04-19T00:01:37;102386.41;;;5.83;68.73
41596;BME280;27283;52.504;13.358;2023-04-19T00:04:10;102388.41;;;5.80;68.11
41596;BME280;27283;52.504;13.358;2023-04-19T00:06:47;102380.47;;;5.64;68.56
41596;BME280;27283;52.504;13.358;2023-04-19T00:09:20;102387.34;;;5.68;68.84
41596;BME280;27283;52.504;13.358;2023-04-19T00:11:52;102374.47;;;5.75;67.00
41596;BME280;27283;52.504;13.358;2023-04-19T00:14:25;102382.28;;;5.78;67.16
41596;BME280;27283;52.504;13.358;2023-04-19T00:16:56;102378.22;;;5.86;66.56
41596;BME280;27283;52.504;13.358;2023-04-19T00:19:29;102373.72;;;5.87;65.79
41596;BME280;27283;52.504;13.358;2023-04-19T00:22:04;102372.69;;;5.90;64.79
41596;BME280;27283;52.504;13.358;2023-04-19T00:24:36;102372.56;;;5.91;64.92
41596;BME280;27283;52.504;13.358;2023-04-19T00:27:08;102368.00;;;5.93;63.71
41596;BME280;27283;52.504;13.358;2023-04-19T00:29:41;102369.56;;;5.97;63.69
41596;BME280;27283;52.504;13.358;2023-04-19T00:32:13;102374.13;;;5.95;63.49
41596;BME280;27283;52.504;13.358;2023-04-19T00:34:46;102371.34;;;6.11;62.04
41596;BME280;27283;52.504;13.358;2023-04-19T00:37:20;102370.25;;;6.01;62.56
41596;BME280;27283;52.504;13.358;2023-04-19T00:39:53;102370.16;;;6.02;62.87
41596;BME280;27283;52.504;13.358;2023-04-19T00:42:24;102370.50;;;5.96;61.45
41596;BME280;27283;52.504;13.358;2023-04-19T00:44:57;102369.25;;;6.02;61.36
41596;BME280;27283;52.504;13.358;2023-04-19T00:47:29;102359.75;;;5.98;61.21
41596;BME280;27283;52.504;13.358;2023-04-19T00:50:02;102366.09;;;5.95;60.72
41596;BME280;27283;52.504;13.358;2023-04-19T00:52:37;102366.28;;;5.92;61.71
41596;BME280;27283;52.504;13.358;2023-04-19T00:55:10;102369.53;;;5.83;60.79
41596;BME280;27283;52.504;13.358;2023-04-19T00:57:42;102363.03;;;5.87;60.74
41596;BME280;27283;52.504;13.358;2023-04-19T01:00:15;102362.66;;;5.79;61.35
41596;BME280;27283;52.504;13.358;2023-04-19T01:02:47;102364.41;;;5.80;60.82
41596;BME280;27283;52.504;13.358;2023-04-19T01:05:20;102370.13;;;5.74;61.52
41596;BME280;27283;52.504;13.358;2023-04-19T01:07:55;102364.56;;;5.62;61.27
41596;BME280;27283;52.504;13.358;2023-04-19T01:10:27;102364.84;;;5.58;61.85
41596;BME280;27283;52.504;13.358;2023-04-19T01:12:59;102371.31;;;5.54;61.60
41596;BME280;27283;52.504;13.358;2023-04-19T01:15:32;102373.22;;;5.52;61.67
41596;BME280;27283;52.504;13.358;2023-04-19T01:18:04;102373.88;;;5.55;61.42
41596;BME280;27283;52.504;13.358;2023-04-19T01:20:36;102368.75;;;5.52;61.58
41596;BME280;27283;52.504;13.358;2023-04-19T01:23:11;102368.81;;;5.36;62.23
41596;BME280;27283;52.504;13.358;2023-04-19T01:25:45;102369.47;;;5.40;62.38
41596;BME280;27283;52.504;13.358;2023-04-19T01:28:17;102365.56;;;5.31;62.69
41596;BME280;27283;52.504;13.358;2023-04-19T01:30:50;102364.19;;;5.24;62.98
41596;BME280;27283;52.504;13.358;2023-04-19T01:33:24;102355.72;;;5.17;63.30
41596;BME280;27283;52.504;13.358;2023-04-19T01:36:00;102357.03;;;5.10;63.50
41596;BME280;27283;52.504;13.358;2023-04-19T01:38:35;102365.63;;;5.15;63.24
41596;BME280;27283;52.504;13.358;2023-04-19T01:41:07;102357.81;;;5.12;62.79
41596;BME280;27283;52.504;13.358;2023-04-19T01:43:40;102357.72;;;5.13;63.07
41596;BME280;27283;52.504;13.358;2023-04-19T01:46:12;102356.53;;;5.03;64.12
41596;BME280;27283;52.504;13.358;2023-04-19T01:48:44;102358.50;;;5.00;63.85
41596;BME280;27283;52.504;13.358;2023-04-19T01:51:16;102352.28;;;4.85;64.84
41596;BME280;27283;52.504;13.358;2023-04-19T01:53:52;102347.91;;;4.68;65.29
41596;BME280;27283;52.504;13.358;2023-04-19T01:56:24;102346.78;;;4.72;64.79
41596;BME280;27283;52.504;13.358;2023-04-19T01:58:56;102347.72;;;4.87;64.24
41596;BME280;27283;52.504;13.358;2023-04-19T02:01:29;102344.13;;;4.72;65.11
41596;BME280;27283;52.504;13.358;2023-04-19T02:04:01;102351.28;;;4.71;64.76
41596;BME280;27283;52.504;13.358;2023-04-19T02:06:34;102345.88;;;4.73;64.63
41596;BME280;27283;52.504;13.358;2023-04-19T02:09:08;102346.22;;;4.67;64.69
41596;BME280;27283;52.504;13.358;2023-04-19T02:11:41;102346.47;;;4.62;65.15
41596;BME280;27283;52.504;13.358;2023-04-19T02:14:13;102341.25;;;4.60;65.53
41596;BME280;27283;52.504;13.358;2023-04-19T02:16:45;102353.00;;;4.56;65.81
41596;BME280;27283;52.504;13.358;2023-04-19T02:19:18;102339.25;;;4.48;66.17
41596;BME280;27283;52.504;13.358;2023-04-19T02:21:51;102337.91;;;4.41;66.48
41596;BME280;27283;52.504;13.358;2023-04-19T02:24:28;102338.41;;;4.48;66.32
41596;BME280;27283;52.504;13.358;2023-04-19T02:27:00;102339.00;;;4.37;67.11
41596;BME280;27283;52.504;13.358;2023-04-19T02:29:33;102332.41;;;4.28;67.08
41596;BME280;27283;52.504;13.358;2023-04-19T02:32:06;102338.25;;;4.19;67.99
41596;BME280;27283;52.504;13.358;2023-04-19T02:34:38;102334.91;;;4.15;68.09
41596;BME280;27283;52.504;13.358;2023-04-19T02:37:11;102330.75;;;4.25;67.99
41596;BME280;27283;52.504;13.358;2023-04-19T02:39:45;102326.38;;;4.08;68.85
41596;BME280;27283;52.504;13.358;2023-04-19T02:42:18;102313.28;;;3.88;70.00
41596;BME280;27283;52.504;13.358;2023-04-19T02:44:50;102329.97;;;3.92;69.62
41596;BME280;27283;52.504;13.358;2023-04-19T02:47:23;102320.00;;;3.95;69.77
41596;BME280;27283;52.504;13.358;2023-04-19T02:49:55;102308.78;;;3.90;70.02
41596;BME280;27283;52.504;13.358;2023-04-19T02:52:28;102315.94;;;3.88;70.69
41596;BME280;27283;52.504;13.358;2023-04-19T02:55:03;102305.91;;;3.77;70.99
41596;BME280;27283;52.504;13.358;2023-04-19T02:57:36;102310.38;;;3.77;71.21
41596;BME280;27283;52.504;13.358;2023-04-19T03:00:10;102303.91;;;3.65;72.28
41596;BME280;27283;52.504;13.358;2023-04-19T03:02:43;102305.97;;;3.60;72.97
41596;BME280;27283;52.504;13.358;2023-04-19T03:05:15;102306.56;;;3.65;72.67
41596;BME280;27283;52.504;13.358;2023-04-19T03:07:48;102297.03;;;3.61;72.84
41596;BME280;27283;52.504;13.358;2023-04-19T03:10:23;102293.94;;;3.52;73.10
41596;BME280;27283;52.504;13.358;2023-04-19T03:12:55;102299.50;;;3.48;74.71
41596;BME280;27283;52.504;13.358;2023-04-19T03:15:28;102292.69;;;3.42;74.97
41596;BME280;27283;52.504;13.358;2023-04-19T03:18:00;102285.72;;;3.40;75.14
41596;BME280;27283;52.504;13.358;2023-04-19T03:20:33;102284.97;;;3.37;75.20
41596;BME280;27283;52.504;13.358;2023-04-19T03:23:05;102285.72;;;3.40;75.05
41596;BME280;27283;52.504;13.358;2023-04-19T03:25:40;102279.81;;;3.34;75.03
41596;BME280;27283;52.504;13.358;2023-04-19T03:28:13;102280.06;;;3.30;75.97
41596;BME280;27283;52.504;13.358;2023-04-19T03:30:46;102281.06;;;3.27;76.63
41596;BME280;27283;52.504;13.358;2023-04-19T03:33:19;102273.72;;;3.32;76.75
41596;BME280;27283;52.504;13.358;2023-04-19T03:35:51;102279.63;;;3.22;77.74
41596;BME280;27283;52.504;13.358;2023-04-19T03:38:24;102274.22;;;3.23;78.26
41596;BME280;27283;52.504;13.358;2023-04-19T03:40:59;102266.25;;;3.23;78.33
41596;BME280;27283;52.504;13.358;2023-04-19T03:43:31;102262.19;;;3.16;78.76
41596;BME280;27283;52.504;13.358;2023-04-19T03:46:04;102271.31;;;3.10;79.55
41596;BME280;27283;52.504;13.358;2023-04-19T03:48:37;102267.09;;;3.06;79.87
41596;BME280;27283;52.504;13.358;2023-04-19T03:51:09;102263.69;;;3.04;80.60
41596;BME280;27283;52.504;13.358;2023-04-19T03:53:43;102252.97;;;3.06;80.94
41596;BME280;27283;52.504;13.358;2023-04-19T03:56:18;102262.34;;;3.13;80.82
41596;BME280;27283;52.504;13.358;2023-04-19T03:58:51;102265.41;;;3.05;81.20
41596;BME280;27283;52.504;13.358;2023-04-19T04:01:23;102258.47;;;3.18;81.14
41596;BME280;27283;52.504;13.358;2023-04-19T04:03:56;102250.91;;;3.11;81.41
41596;BME280;27283;52.504;13.358;2023-04-19T04:06:32;102257.13;;;3.11;81.89
41596;BME280;27283;52.504;13.358;2023-04-19T04:09:05;102254.53;;;3.10;81.91
41596;BME280;27283;52.504;13.358;2023-04-19T04:11:40;102257.19;;;3.10;82.54
41596;BME280;27283;52.504;13.358;2023-04-19T04:14:12;102251.97;;;3.08;82.49
41596;BME280;27283;52.504;13.358;2023-04-19T04:16:45;102253.97;;;3.03;82.86
41596;BME280;27283;52.504;13.358;2023-04-19T04:19:17;102256.19;;;2.95;83.83
41596;BME280;27283;52.504;13.358;2023-04-19T04:21:50;102257.81;;;2.97;83.97
41596;BME280;27283;52.504;13.358;2023-04-19T04:24:23;102254.13;;;3.00;84.15
41596;BME280;27283;52.504;13.358;2023-04-19T04:26:58;102247.50;;;3.09;83.77
41596;BME280;27283;52.504;13.358;2023-04-19T04:29:31;102245.00;;;3.06;83.74
41596;BME280;27283;52.504;13.358;2023-04-19T04:32:06;102251.41;;;3.01;84.65
41596;BME280;27283;52.504;13.358;2023-04-19T04:34:39;102243.50;;;3.00;84.79
41596;BME280;27283;52.504;13.358;2023-04-19T04:37:12;102243.50;;;3.00;85.58
41596;BME280;27283;52.504;13.358;2023-04-19T04:39:46;102245.94;;;3.05;85.78
41596;BME280;27283;52.504;13.358;2023-04-19T04:42:21;102239.44;;;3.10;85.88
41596;BME280;27283;52.504;13.358;2023-04-19T04:44:54;102243.91;;;3.10;86.36
41596;BME280;27283;52.504;13.358;2023-04-19T04:47:30;102229.56;;;3.12;86.27
41596;BME280;27283;52.504;13.358;2023-04-19T04:50:04;102233.09;;;3.13;86.58
41596;BME280;27283;52.504;13.358;2023-04-19T04:52:36;102232.94;;;3.16;86.56
41596;BME280;27283;52.504;13.358;2023-04-19T04:55:09;102243.50;;;3.17;86.67
41596;BME280;27283;52.504;13.358;2023-04-19T04:57:44;102231.78;;;3.22;86.92
41596;BME280;27283;52.504;13.358;2023-04-19T05:00:17;102232.22;;;3.30;87.01
41596;BME280;27283;52.504;13.358;2023-04-19T05:02:50;102230.31;;;3.32;87.18
41596;BME280;27283;52.504;13.358;2023-04-19T05:05:23;102227.78;;;3.46;86.80
41596;BME280;27283;52.504;13.358;2023-04-19T05:07:55;102228.88;;;3.42;87.11
41596;BME280;27283;52.504;13.358;2023-04-19T05:10:28;102221.06;;;3.39;86.76
41596;BME280;27283;52.504;13.358;2023-04-19T05:13:04;102224.06;;;3.33;87.34
41596;BME280;27283;52.504;13.358;2023-04-19T05:15:37;102222.41;;;3.30;87.73
41596;BME280;27283;52.504;13.358;2023-04-19T05:18:09;102221.06;;;3.39;87.51
41596;BME280;27283;52.504;13.358;2023-04-19T05:20:42;102216.28;;;3.46;87.38
41596;BME280;27283;52.504;13.358;2023-04-19T05:23:14;102207.00;;;3.53;86.93
41596;BME280;27283;52.504;13.358;2023-04-19T05:25:46;102217.16;;;3.62;86.86
41596;BME280;27283;52.504;13.358;2023-04-19T05:28:22;102210.22;;;3.60;86.46
41596;BME280;27283;52.504;13.358;2023-04-19T05:30:54;102212.78;;;3.77;86.02
41596;BME280;27283;52.504;13.358;2023-04-19T05:33:26;102201.13;;;3.80;85.71
41596;BME280;27283;52.504;13.358;2023-04-19T05:35:59;102206.84;;;3.88;85.43
41596;BME280;27283;52.504;13.358;2023-04-19T05:38:31;102195.97;;;3.93;85.38
41596;BME280;27283;52.504;13.358;2023-04-19T05:41:04;102199.31;;;3.96;85.41
41596;BME280;27283;52.504;13.358;2023-04-19T05:43:39;102194.66;;;4.00;85.14
41596;BME280;27283;52.504;13.358;2023-04-19T05:46:12;102194.84;;;3.97;84.87
41596;BME280;27283;52.504;13.358;2023-04-19T05:48:44;102200.50;;;4.06;84.53
41596;BME280;27283;52.504;13.358;2023-04-19T05:51:16;102200.06;;;3.98;84.14
41596;BME280;27283;52.504;13.358;2023-04-19T05:53:48;102194.13;;;4.09;83.82
41596;BME280;27283;52.504;13.358;2023-04-19T05:56:25;102197.13;;;4.19;83.53
41596;BME280;27283;52.504;13.358;2023-04-19T05:58:59;102201.47;;;4.36;83.12
41596;BME280;27283;52.504;13.358;2023-04-19T06:01:32;102191.16;;;4.46;82.50
41596;BME280;27283;52.504;13.358;2023-04-19T06:04:05;102203.66;;;4.59;82.07
41596;BME280;27283;52.504;13.358;2023-04-19T06:06:37;102197.00;;;4.67;81.09
41596;BME280;27283;52.504;13.358;2023-04-19T06:09:10;102204.03;;;4.68;80.53
41596;BME280;27283;52.504;13.358;2023-04-19T06:11:43;102205.72;;;4.99;79.29
41596;BME280;27283;52.504;13.358;2023-04-19T06:14:21;102190.59;;;5.28;78.14
41596;BME280;27283;52.504;13.358;2023-04-19T06:16:53;102194.13;;;5.99;75.65
41596;BME280;27283;52.504;13.358;2023-04-19T06:19:25;102194.19;;;7.17;70.47
41596;BME280;27283;52.504;13.358;2023-04-19T06:21:57;102191.66;;;8.13;65.51
41596;BME280;27283;52.504;13.358;2023-04-19T06:24:30;102193.88;;;8.91;62.62
41596;BME280;27283;52.504;13.358;2023-04-19T06:27:03;102193.31;;;9.32;60.01
41596;BME280;27283;52.504;13.358;2023-04-19T06:29:37;102195.75;;;9.58;59.19
41596;BME280;27283;52.504;13.358;2023-04-19T06:32:10;102192.34;;;9.56;58.54
41596;BME280;27283;52.504;13.358;2023-04-19T06:34:42;102187.50;;;10.37;57.33
41596;BME280;27283;52.504;13.358;2023-04-19T06:37:16;102195.00;;;9.67;57.44
41596;BME280;27283;52.504;13.358;2023-04-19T06:39:48;102185.84;;;10.14;57.47
41596;BME280;27283;52.504;13.358;2023-04-19T06:42:20;102182.78;;;10.51;55.63
41596;BME280;27283;52.504;13.358;2023-04-19T06:44:56;102182.00;;;10.81;53.91
41596;BME280;27283;52.504;13.358;2023-04-19T06:47:29;102185.72;;;10.69;54.51
41596;BME280;27283;52.504;13.358;2023-04-19T06:50:04;102180.44;;;10.78;52.98
41596;BME280;27283;52.504;13.358;2023-04-19T06:52:36;102183.50;;;11.26;52.25
41596;BME280;27283;52.504;13.358;2023-04-19T06:55:09;102176.31;;;11.36;51.05
41596;BME280;27283;52.504;13.358;2023-04-19T06:57:42;102166.16;;;11.59;52.30
41596;BME280;27283;52.504;13.358;2023-04-19T07:00:18;102161.09;;;11.25;51.12
41596;BME280;27283;52.504;13.358;2023-04-19T07:02:51;102152.16;;;11.85;49.86
41596;BME280;27283;52.504;13.358;2023-04-19T07:05:23;102148.03;;;11.71;48.87
41596;BME280;27283;52.504;13.358;2023-04-19T07:07:56;102151.38;;;12.04;48.49
41596;BME280;27283;52.504;13.358;2023-04-19T07:10:28;102141.53;;;12.62;48.99
41596;BME280;27283;52.504;13.358;2023-04-19T07:13:01;102148.78;;;11.83;48.16
41596;BME280;27283;52.504;13.358;2023-04-19T07:15:36;102130.94;;;12.01;47.45
41596;BME280;27283;52.504;13.358;2023-04-19T07:18:09;102126.66;;;12.48;46.45
41596;BME280;27283;52.504;13.358;2023-04-19T07:20:44;102122.50;;;13.10;44.33
41596;BME280;27283;52.504;13.358;2023-04-19T07:23:18;102114.97;;;13.04;44.32
41596;BME280;27283;52.504;13.358;2023-04-19T07:25:51;102121.00;;;13.26;43.26
41596;BME280;27283;52.504;13.358;2023-04-19T07:28:24;102117.41;;;13.35;44.24
41596;BME280;27283;52.504;13.358;2023-04-19T07:30:59;102119.97;;;13.37;43.13
41596;BME280;27283;52.504;13.358;2023-04-19T07:33:33;102121.72;;;13.56;42.68
41596;BME280;27283;52.504;13.358;2023-04-19T07:36:07;102105.09;;;14.23;41.50
41596;BME280;27283;52.504;13.358;2023-04-19T07:38:40;102102.22;;;14.42;40.05
41596;BME280;27283;52.504;13.358;2023-04-19T07:41:13;102099.63;;;13.96;40.47
41596;BME280;27283;52.504;13.358;2023-04-19T07:43:46;102097.03;;;14.31;39.46
41596;BME280;27283;52.504;13.358;2023-04-19T07:46:22;102094.22;;;13.96;39.63
41596;BME280;27283;52.504;13.358;2023-04-19T07:48:55;102091.97;;;13.38;40.85
41596;BME280;27283;52.504;13.358;2023-04-19T07:51:27;102077.97;;;13.15;40.75
41596;BME280;27283;52.504;13.358;2023-04-19T07:54:01;102074.06;;;12.99;42.45
41596;BME280;27283;52.504;13.358;2023-04-19T07:56:33;102068.66;;;13.27;40.63
41596;BME280;27283;52.504;13.358;2023-04-19T07:59:06;102066.59;;;13.49;39.50
41596;BME280;27283;52.504;13.358;2023-04-19T08:01:41;102077.56;;;13.65;39.79
41596;BME280;27283;52.504;13.358;2023-04-19T08:04:14;102073.22;;;13.36;40.29
41596;BME280;27283;52.504;13.358;2023-04-19T08:06:56;102071.78;;;13.32;39.69
41596;BME280;27283;52.504;13.358;2023-04-19T08:09:35;102073.31;;;13.80;39.10
41596;BME280;27283;52.504;13.358;2023-04-19T08:12:08;102069.09;;;14.48;38.91
41596;BME280;27283;52.504;13.358;2023-04-19T08:15:03;102064.16;;;14.70;36.94
41596;BME280;27283;52.504;13.358;2023-04-19T08:17:58;102056.59;;;14.74;36.70
41596;BME280;27283;52.504;13.358;2023-04-19T08:20:33;102057.13;;;14.85;36.75
41596;BME280;27283;52.504;13.358;2023-04-19T08:23:07;102069.28;;;14.55;36.66
41596;BME280;27283;52.504;13.358;2023-04-19T08:25:53;102060.09;;;13.95;36.86
41596;BME280;27283;52.504;13.358;2023-04-19T08:28:26;102053.88;;;14.74;36.20
41596;BME280;27283;52.504;13.358;2023-04-19T08:30:59;102052.56;;;15.29;35.48
41596;BME280;27283;52.504;13.358;2023-04-19T08:33:34;102047.50;;;15.50;35.44
41596;BME280;27283;52.504;13.358;2023-04-19T08:36:09;102055.03;;;15.89;34.11
41596;BME280;27283;52.504;13.358;2023-04-19T08:38:49;102054.28;;;15.30;34.35
41596;BME280;27283;52.504;13.358;2023-04-19T08:41:34;102044.03;;;15.07;35.17
41596;BME280;27283;52.504;13.358;2023-04-19T08:44:10;102046.53;;;15.59;34.37
41596;BME280;27283;52.504;13.358;2023-04-19T08:46:56;102059.41;;;15.74;33.13
41596;BME280;27283;52.504;13.358;2023-04-19T08:49:34;102042.19;;;16.08;33.69
41596;BME280;27283;52.504;13.358;2023-04-19T08:52:12;102036.97;;;16.54;32.72
41596;BME280;27283;52.504;13.358;2023-04-19T08:54:45;102031.31;;;16.89;32.61
41596;BME280;27283;52.504;13.358;2023-04-19T08:57:20;102035.91;;;16.16;33.01
41596;BME280;27283;52.504;13.358;2023-04-19T08:59:52;102030.94;;;15.62;33.99
41596;BME280;27283;52.504;13.358;2023-04-19T09:02:27;102044.75;;;15.17;34.67
41596;BME280;27283;52.504;13.358;2023-04-19T09:05:03;102047.41;;;13.78;35.82
41596;BME280;27283;52.504;13.358;2023-04-19T09:07:35;102028.13;;;13.27;36.65
41596;BME280;27283;52.504;13.358;2023-04-19T09:10:09;102012.69;;;12.73;38.54
41596;BME280;27283;52.504;13.358;2023-04-19T09:12:42;102005.59;;;13.00;38.96
41596;BME280;27283;52.504;13.358;2023-04-19T09:15:13;102011.91;;;14.17;37.60
41596;BME280;27283;52.504;13.358;2023-04-19T09:18:03;102001.34;;;14.06;37.00
41596;BME280;27283;52.504;13.358;2023-04-19T09:20:41;102007.66;;;14.14;36.33
41596;BME280;27283;52.504;13.358;2023-04-19T09:23:15;101992.25;;;15.10;36.37
41596;BME280;27283;52.504;13.358;2023-04-19T09:25:52;102008.44;;;15.77;34.21
41596;BME280;27283;52.504;13.358;2023-04-19T09:28:28;101984.00;;;16.10;33.34
41596;BME280;27283;52.504;13.358;2023-04-19T09:31:10;101978.94;;;15.99;33.71
41596;BME280;27283;52.504;13.358;2023-04-19T09:33:57;101982.63;;;15.49;33.53
41596;BME280;27283;52.504;13.358;2023-04-19T09:36:45;101987.94;;;14.57;34.97
41596;BME280;27283;52.504;13.358;2023-04-19T09:39:30;101974.72;;;13.49;36.31
41596;BME280;27283;52.504;13.358;2023-04-19T09:42:03;101984.31;;;13.69;36.56
41596;BME280;27283;52.504;13.358;2023-04-19T09:44:36;101983.97;;;13.90;35.88
41596;BME280;27283;52.504;13.358;2023-04-19T09:47:28;101989.94;;;14.20;36.27
41596;BME280;27283;52.504;13.358;2023-04-19T09:50:04;101968.34;;;15.05;35.86
41596;BME280;27283;52.504;13.358;2023-04-19T09:52:53;101964.38;;;16.48;31.96
41596;BME280;27283;52.504;13.358;2023-04-19T09:55:26;101976.16;;;16.32;31.67
41596;BME280;27283;52.504;13.358;2023-04-19T09:58:13;101973.50;;;15.50;32.56
41596;BME280;27283;52.504;13.358;2023-04-19T10:00:46;101972.63;;;16.15;34.00
41596;BME280;27283;52.504;13.358;2023-04-19T10:03:21;101947.25;;;15.83;32.61
41596;BME280;27283;52.504;13.358;2023-04-19T10:05:55;101942.13;;;16.53;32.00
41596;BME280;27283;52.504;13.358;2023-04-19T10:08:44;101961.56;;;17.12;30.17
41596;BME280;27283;52.504;13.358;2023-04-19T10:11:17;101940.47;;;16.91;31.47
41596;BME280;27283;52.504;13.358;2023-04-19T10:13:54;101946.25;;;16.88;30.45
41596;BME280;27283;52.504;13.358;2023-04-19T10:16:29;101942.81;;;16.94;30.87
41596;BME280;27283;52.504;13.358;2023-04-19T10:19:04;101942.31;;;15.62;31.92
41596;BME280;27283;52.504;13.358;2023-04-19T10:21:41;101937.41;;;15.57;32.74
41596;BME280;27283;52.504;13.358;2023-04-19T10:24:18;101923.72;;;16.32;31.56
41596;BME280;27283;52.504;13.358;2023-04-19T10:27:10;101922.19;;;17.08;30.42
41596;BME280;27283;52.504;13.358;2023-04-19T10:29:54;101930.28;;;15.56;31.89
41596;BME280;27283;52.504;13.358;2023-04-19T10:32:28;101938.41;;;15.32;32.81
41596;BME280;27283;52.504;13.358;2023-04-19T10:35:07;101934.50;;;16.08;32.44
41596;BME280;27283;52.504;13.358;2023-04-19T10:38:01;101952.47;;;16.57;31.17
41596;BME280;27283;52.504;13.358;2023-04-19T10:40:58;101945.31;;;15.10;32.72
41596;BME280;27283;52.504;13.358;2023-04-19T10:43:45;101940.59;;;15.12;32.93
41596;BME280;27283;52.504;13.358;2023-04-19T10:46:36;101956.56;;;15.56;32.99
41596;BME280;27283;52.504;13.358;2023-04-19T10:49:08;101933.34;;;15.29;32.47
41596;BME280;27283;52.504;13.358;2023-04-19T10:51:49;101926.03;;;15.62;33.69
41596;BME280;27283;52.504;13.358;2023-04-19T10:54:29;101921.38;;;16.28;33.31
41596;BME280;27283;52.504;13.358;2023-04-19T10:57:08;101922.00;;;16.39;30.99
41596;BME280;27283;52.504;13.358;2023-04-19T10:59:40;101914.75;;;16.31;31.99
41596;BME280;27283;52.504;13.358;2023-04-19T11:02:27;101926.84;;;16.20;32.83
41596;BME280;27283;52.504;13.358;2023-04-19T11:05:02;101907.44;;;16.32;31.42
41596;BME280;27283;52.504;13.358;2023-04-19T11:07:38;101917.38;;;16.08;32.61
41596;BME280;27283;52.504;13.358;2023-04-19T11:10:12;101902.63;;;16.50;31.37
41596;BME280;27283;52.504;13.358;2023-04-19T11:12:47;101894.09;;;16.93;32.23
41596;BME280;27283;52.504;13.358;2023-04-19T11:15:21;101897.88;;;16.83;31.51
41596;BME280;27283;52.504;13.358;2023-04-19T11:17:57;101884.94;;;16.86;31.96
41596;BME280;27283;52.504;13.358;2023-04-19T11:20:42;101894.28;;;16.83;31.97
41596;BME280;27283;52.504;13.358;2023-04-19T11:23:17;101893.06;;;16.62;31.87
41596;BME280;27283;52.504;13.358;2023-04-19T11:25:50;101883.09;;;16.55;31.75
41596;BME280;27283;52.504;13.358;2023-04-19T11:28:25;101880.69;;;16.20;32.01
41596;BME280;27283;52.504;13.358;2023-04-19T11:30:57;101892.47;;;15.96;32.56
41596;BME280;27283;52.504;13.358;2023-04-19T11:33:32;101896.59;;;15.51;33.69
41596;BME280;27283;52.504;13.358;2023-04-19T11:36:12;101880.81;;;15.21;33.26
41596;BME280;27283;52.504;13.358;2023-04-19T11:38:47;101878.00;;;14.56;34.80
41596;BME280;27283;52.504;13.358;2023-04-19T11:41:20;101878.38;;;14.26;35.28
41596;BME280;27283;52.504;13.358;2023-04-19T11:43:54;101877.22;;;13.94;36.22
41596;BME280;27283;52.504;13.358;2023-04-19T11:46:26;101868.94;;;13.25;37.76
41596;BME280;27283;52.504;13.358;2023-04-19T11:48:58;101868.50;;;12.94;39.11
41596;BME280;27283;52.504;13.358;2023-04-19T11:51:30;101865.09;;;13.10;39.04
41596;BME280;27283;52.504;13.358;2023-04-19T11:54:11;101865.56;;;12.87;39.28
41596;BME280;27283;52.504;13.358;2023-04-19T11:56:59;101859.22;;;12.79;38.88
41596;BME280;27283;52.504;13.358;2023-04-19T11:59:35;101868.56;;;12.66;39.73
41596;BME280;27283;52.504;13.358;2023-04-19T12:02:08;101859.09;;;12.62;38.96
41596;BME280;27283;52.504;13.358;2023-04-19T12:04:41;101865.16;;;12.64;38.27
41596;BME280;27283;52.504;13.358;2023-04-19T12:07:13;101864.09;;;12.75;37.90
41596;BME280;27283;52.504;13.358;2023-04-19T12:09:48;101853.53;;;12.82;37.46
41596;BME280;27283;52.504;13.358;2023-04-19T12:12:31;101857.25;;;12.99;37.71
41596;BME280;27283;52.504;13.358;2023-04-19T12:15:06;101856.31;;;13.26;38.50
41596;BME280;27283;52.504;13.358;2023-04-19T12:17:58;101842.88;;;13.16;37.40
41596;BME280;27283;52.504;13.358;2023-04-19T12:20:31;101838.41;;;13.07;38.28
41596;BME280;27283;52.504;13.358;2023-04-19T12:23:04;101849.16;;;13.35;37.05
41596;BME280;27283;52.504;13.358;2023-04-19T12:25:39;101836.78;;;13.14;38.39
41596;BME280;27283;52.504;13.358;2023-04-19T12:28:12;101841.69;;;12.92;38.43
41596;BME280;27283;52.504;13.358;2023-04-19T12:30:47;101829.47;;;12.88;37.83
41596;BME280;27283;52.504;13.358;2023-04-19T12:33:20;101828.69;;;12.78;38.93
41596;BME280;27283;52.504;13.358;2023-04-19T12:35:51;101831.47;;;12.50;38.77
41596;BME280;27283;52.504;13.358;2023-04-19T12:38:24;101810.50;;;12.44;37.96
41596;BME280;27283;52.504;13.358;2023-04-19T12:40:55;101812.91;;;12.65;37.65
41596;BME280;27283;52.504;13.358;2023-04-19T12:43:28;101817.38;;;12.74;37.76
41596;BME280;27283;52.504;13.358;2023-04-19T12:46:05;101809.50;;;12.81;38.60
41596;BME280;27283;52.504;13.358;2023-04-19T12:48:37;101808.41;;;12.92;38.55
41596;BME280;27283;52.504;13.358;2023-04-19T12:51:09;101809.19;;;12.84;39.04
41596;BME280;27283;52.504;13.358;2023-04-19T12:53:46;101800.63;;;12.89;39.79
41596;BME280;27283;52.504;13.358;2023-04-19T12:56:19;101796.50;;;13.03;39.44
41596;BME280;27283;52.504;13.358;2023-04-19T12:58:55;101792.59;;;13.15;39.35
41596;BME280;27283;52.504;13.358;2023-04-19T13:01:31;101797.09;;;12.88;39.56
41596;BME280;27283;52.504;13.358;2023-04-19T13:04:06;101800.88;;;12.96;39.41
41596;BME280;27283;52.504;13.358;2023-04-19T13:06:41;101785.69;;;12.76;38.06
41596;BME280;27283;52.504;13.358;2023-04-19T13:09:14;101788.25;;;13.04;38.00
41596;BME280;27283;52.504;13.358;2023-04-19T13:11:47;101774.94;;;13.29;37.13
41596;BME280;27283;52.504;13.358;2023-04-19T13:14:20;101767.00;;;13.45;36.97
41596;BME280;27283;52.504;13.358;2023-04-19T13:16:59;101765.22;;;13.62;36.79
41596;BME280;27283;52.504;13.358;2023-04-19T13:19:32;101757.25;;;13.53;37.26
41596;BME280;27283;52.504;13.358;2023-04-19T13:22:05;101742.13;;;13.76;36.04
41596;BME280;27283;52.504;13.358;2023-04-19T13:24:47;101739.81;;;13.90;35.92